Tuesday, February 20, 2018, 9:22 AM GMT
Back to Local

CYQM, Moncton, N. B.

Location: , , Canada Lat: 46.117
Local Time: 9:22 AM GMT ( 9:22 GMT) Lon: -64.683
Time Zone: GMT Elev: 232 ft

Show me the last for .
Show Coded

Time T Td Feel RH Dir Speed Gust Alt SLP Vis Weather Sky Remarks
2018-02-20 09:00 36 36 32 100 190° 5 - 30.24 30.25 1 -DZ BR BKN007 BKN016 OVC055 None
2018-02-20 08:51 36 36 32 100 190° 5 - 30.23 30.25 1 BR SCT007 BKN018 OVC056 None
2018-02-20 08:00 36 36 31 100 170° 6 - 30.23 30.25 10 -RA BKN008 BKN012 OVC058 None
2018-02-20 07:58 36 36 31 100 170° 6 - 30.23 30.24 10 -RA BKN008 OVC012 None
2018-02-20 07:00 37 36 33 93 180° 6 - 30.24 30.25 10 -RA BKN008 OVC016 None
2018-02-20 06:24 39 36 34 86 210° 7 - 30.24 30.26 12 -RA SCT022 BKN036 BKN068 None
2018-02-20 06:00 37 34 32 86 200° 7 - 30.25 30.27 15 BKN020 BKN075 None
2018-02-20 05:45 37 34 32 86 200° 7 - 30.25 30.27 15 BKN016 BKN078 BKN085 None
2018-02-20 05:00 37 34 31 86 190° 9 - 30.26 30.28 15 -RA OVC015 None
2018-02-20 04:00 37 34 30 86 210° 10 - 30.28 30.29 15 -RA OVC015 None
2018-02-20 03:00 37 32 29 80 190° 13 - 30.29 30.30 15 -RA OVC017 None
2018-02-20 02:00 37 30 29 74 190° 13 - 30.30 30.32 15 -RA OVC019 None
2018-02-20 01:00 37 30 25 74 210° 16 28 30.30 30.32 15 OVC030 None
2018-02-20 00:00 37 28 25 69 210° 18 29 30.31 30.32 15 OVC028 None
2018-02-19 23:00 37 28 25 69 200° 23 32 30.33 30.34 15 OVC028 None
2018-02-19 22:00 37 28 25 69 200° 20 31 30.32 30.34 15 BKN025 None
2018-02-19 21:00 37 28 25 69 210° 20 30 30.34 30.36 15 BKN030 None
2018-02-19 20:00 37 27 25 64 210° 18 31 30.37 30.38 15 BKN030 None
2018-02-19 19:00 39 25 26 55 190° 25 37 30.39 30.40 15 FEW040 FEW150 FEW240 None
2018-02-19 18:00 39 21 28 48 200° 20 29 30.41 30.42 15 FEW030 FEW120 FEW240 Pressure falling rapidly
2018-02-19 17:00 37 19 26 47 190° 17 25 30.46 30.47 15 FEW030 BKN085 BKN150 BKN240 None
2018-02-19 15:00 28 18 23 63 240° 5 - 30.54 30.55 15 FEW025 FEW040 FEW100 SCT250 None
2018-02-19 14:00 23 16 15 73 220° 7 - 30.55 30.57 15 FEW040 FEW100 None
2018-02-19 13:00 19 14 11 79 200° 6 - 30.54 30.56 15 FEW040 FEW080 None
2018-02-19 12:00 16 12 6 85 220° 7 - 30.54 30.56 15 FEW030 None
2018-02-19 11:00 16 10 7 78 290° 6 - 30.51 30.53 15 CLR None
2018-02-19 10:00 18 14 9 85 220° 6 - 30.49 30.51 15 CLR None

Support USWX by starting your Amazon purchase here.